OMFJ/FJR METAR and TAF weather

Enter ICAO airport designator
Station Type Date Time Source
OMFJ METAR 2020/01/23 06:00 UTC NOAA

OMFJ 230600Z 16005KT 120V210 8000 SCT025 24/17 Q1019 A3009


Station Type Date Time Source
OMFJ Decoded METAR 2020/01/23 06:00 UTC NOAA

Fujairah, United Arab Emirates (OMFJ) 25-06N 056-20E 28M
Jan 23, 2020 - 01:00 AM EST / 2020.01.23 0600 UTC
Wind: from the SSE (160 degrees) at 6 MPH (5 KT) (direction variable):0
Visibility: 4 mile(s):0
Sky conditions: partly cloudy
Temperature: 75 F (24 C)
Dew Point: 62 F (17 C)
Relative Humidity: 64%
Pressure (altimeter): 30.09 in. Hg (1018 hPa)
ob: OMFJ 230600Z 16005KT 120V210 8000 SCT025 24/17 Q1019 A3009
cycle: 6

Station Type Date Time Source
OMFJ TAF 2020/01/23 06:06 UTC NOAA

TAF OMFJ 230500Z 2306/2412 10008KT 8000 FEW025 PROB30
TEMPO 2310/2400 VRB15G25KT 5000 SHRA FEW035TCU
BECMG 2314/2316 VRB03KT
BECMG 2321/2323 29010KT

Example: see airport list